createdAt,value
2023-04-15T00:00:33.921Z,90143.53
2023-04-15T00:03:02.270Z,90141.03
2023-04-15T00:05:31.684Z,90134.75
2023-04-15T00:07:58.881Z,90134.63
2023-04-15T00:10:28.081Z,90136.00
2023-04-15T00:12:54.353Z,90135.00
2023-04-15T00:15:20.764Z,90126.25
2023-04-15T00:17:47.138Z,90131.50
2023-04-15T00:20:13.514Z,90131.50
2023-04-15T00:22:39.829Z,90127.00
2023-04-15T00:25:06.190Z,90128.28
2023-04-15T00:27:32.545Z,90128.28
2023-04-15T00:29:58.871Z,90127.84
2023-04-15T00:32:25.254Z,90124.63
2023-04-15T00:34:51.730Z,90119.53
2023-04-15T00:37:18.033Z,90118.75
2023-04-15T00:39:45.062Z,90120.78
2023-04-15T00:42:11.911Z,90127.63
2023-04-15T00:44:38.209Z,90124.81
2023-04-15T00:47:04.868Z,90126.56
2023-04-15T00:49:32.096Z,90131.66
2023-04-15T00:51:58.396Z,90123.91
2023-04-15T00:54:24.731Z,90120.78
2023-04-15T00:56:51.145Z,90119.31
2023-04-15T00:59:17.514Z,90122.28
2023-04-15T01:01:43.877Z,90121.63
2023-04-15T01:04:11.528Z,90123.13
2023-04-15T01:06:37.930Z,90116.28
2023-04-15T01:09:04.229Z,90108.34
2023-04-15T01:11:30.632Z,90116.66
2023-04-15T01:13:58.205Z,90116.06
2023-04-15T01:16:24.581Z,90113.00
2023-04-15T01:18:52.126Z,90115.75
2023-04-15T01:21:19.303Z,90114.81
2023-04-15T01:23:47.140Z,90117.06
2023-04-15T01:26:13.410Z,90119.59
2023-04-15T01:28:39.706Z,90119.75
2023-04-15T01:31:09.732Z,90115.72
2023-04-15T01:33:36.534Z,90119.75
2023-04-15T01:36:03.503Z,90127.84
2023-04-15T01:38:29.771Z,90124.88
2023-04-15T01:40:56.050Z,90130.59
2023-04-15T01:43:22.580Z,90119.25
2023-04-15T01:45:48.889Z,90115.13
2023-04-15T01:48:15.627Z,90118.44
2023-04-15T01:50:42.581Z,90119.25
2023-04-15T01:53:08.888Z,90117.75
2023-04-15T01:55:35.180Z,90111.78
2023-04-15T01:58:01.453Z,90108.75
2023-04-15T02:00:28.402Z,90111.69
2023-04-15T02:02:54.731Z,90114.16
2023-04-15T02:05:21.062Z,90115.09
2023-04-15T02:07:48.379Z,90108.44
2023-04-15T02:10:16.311Z,90109.38
2023-04-15T02:12:42.598Z,90112.41
2023-04-15T02:15:09.158Z,90106.94
2023-04-15T02:17:35.701Z,90109.72
2023-04-15T02:20:02.119Z,90110.97
2023-04-15T02:22:30.176Z,90111.34
2023-04-15T02:24:56.464Z,90110.84
2023-04-15T02:27:22.812Z,90115.41
2023-04-15T02:29:51.175Z,90114.31
2023-04-15T02:32:17.502Z,90109.47
2023-04-15T02:34:43.808Z,90108.81
2023-04-15T02:37:10.537Z,90104.34
2023-04-15T02:39:36.855Z,90110.97
2023-04-15T02:42:03.169Z,90118.34
2023-04-15T02:44:29.447Z,90107.09
2023-04-15T02:46:55.729Z,90116.00
2023-04-15T02:49:22.890Z,90108.66
2023-04-15T02:51:49.674Z,90107.09
2023-04-15T02:54:16.947Z,90108.22
2023-04-15T02:56:43.246Z,90110.03
2023-04-15T02:59:09.532Z,90101.25
2023-04-15T03:01:35.921Z,90104.31
2023-04-15T03:04:02.436Z,90099.66
2023-04-15T03:06:28.909Z,90108.44
2023-04-15T03:08:55.212Z,90099.41
2023-04-15T03:11:21.536Z,90105.56
2023-04-15T03:13:47.812Z,90114.75
2023-04-15T03:16:14.193Z,90112.97
2023-04-15T03:18:40.673Z,90106.91
2023-04-15T03:21:07.262Z,90100.50
2023-04-15T03:23:33.574Z,90106.88
2023-04-15T03:26:03.074Z,90110.13
2023-04-15T03:28:30.013Z,90103.66
2023-04-15T03:30:56.459Z,90102.16
2023-04-15T03:33:22.760Z,90105.44
2023-04-15T03:35:49.968Z,90103.66
2023-04-15T03:38:16.336Z,90104.09
2023-04-15T03:40:42.805Z,90098.19
2023-04-15T03:43:09.095Z,90100.41
2023-04-15T03:45:35.603Z,90098.97
2023-04-15T03:50:31.111Z,90092.91
2023-04-15T03:52:57.383Z,90106.97
2023-04-15T03:55:23.666Z,90103.63
2023-04-15T03:57:49.948Z,90100.47
2023-04-15T04:00:16.271Z,90105.59
2023-04-15T04:02:42.768Z,90103.72
2023-04-15T04:05:09.247Z,90107.44
2023-04-15T04:07:35.919Z,90111.59
2023-04-15T04:10:03.666Z,90101.00
2023-04-15T04:12:29.943Z,90101.31
2023-04-15T04:14:56.307Z,90110.03
2023-04-15T04:17:22.630Z,90105.44
2023-04-15T04:19:48.962Z,90109.19
2023-04-15T04:22:15.604Z,90113.63
2023-04-15T04:24:41.875Z,90113.50
2023-04-15T04:27:08.150Z,90119.34
2023-04-15T04:29:34.435Z,90114.09
2023-04-15T04:32:00.805Z,90117.47
2023-04-15T04:34:27.116Z,90110.38
2023-04-15T04:36:53.465Z,90112.56
2023-04-15T04:39:19.742Z,90109.53
2023-04-15T04:41:46.109Z,90106.59
2023-04-15T04:44:12.381Z,90117.69
2023-04-15T04:46:38.666Z,90113.72
2023-04-15T04:49:05.127Z,90112.63
2023-04-15T04:51:31.686Z,90115.00
2023-04-15T04:53:57.979Z,90109.47
2023-04-15T04:56:24.255Z,90108.09
2023-04-15T04:58:51.246Z,90114.47
2023-04-15T05:01:17.591Z,90110.03
2023-04-15T05:03:44.225Z,90112.66
2023-04-15T05:06:10.638Z,90111.56
2023-04-15T05:08:39.131Z,90109.03
2023-04-15T05:11:06.556Z,90118.38
2023-04-15T05:13:32.958Z,90119.94
2023-04-15T05:15:59.702Z,90115.22
2023-04-15T05:18:26.064Z,90108.41
2023-04-15T05:20:52.398Z,90105.22
2023-04-15T05:23:18.846Z,90109.66
2023-04-15T05:25:45.173Z,90109.50
2023-04-15T05:28:11.549Z,90114.09
2023-04-15T05:30:37.903Z,90111.91
2023-04-15T05:33:04.226Z,90118.44
2023-04-15T05:35:30.594Z,90127.13
2023-04-15T05:37:56.916Z,90125.06
2023-04-15T05:40:23.429Z,90115.63
2023-04-15T05:42:49.772Z,90128.56
2023-04-15T05:45:16.049Z,90127.03
2023-04-15T05:47:42.447Z,90126.31
2023-04-15T05:50:09.318Z,90122.88
2023-04-15T05:52:35.862Z,90120.25
2023-04-15T05:55:02.184Z,90124.38
2023-04-15T05:57:28.491Z,90138.53
2023-04-15T05:59:57.147Z,90129.38
2023-04-15T06:02:23.485Z,90135.34
2023-04-15T06:04:49.819Z,90133.81
2023-04-15T06:07:16.174Z,90129.94
2023-04-15T06:09:42.515Z,90125.47
2023-04-15T06:12:12.127Z,90116.97
2023-04-15T06:14:39.035Z,90125.97
2023-04-15T06:17:05.320Z,90122.22
2023-04-15T06:19:31.870Z,90116.34
2023-04-15T06:21:58.281Z,90115.31
2023-04-15T06:24:24.584Z,90121.53
2023-04-15T06:26:51.160Z,90116.81
2023-04-15T06:29:17.466Z,90106.78
2023-04-15T06:31:43.929Z,90111.94
2023-04-15T06:34:11.095Z,90103.00
2023-04-15T06:36:37.425Z,90091.31
2023-04-15T06:39:03.870Z,90087.03
2023-04-15T06:41:30.346Z,90097.03
2023-04-15T06:43:56.666Z,90097.78
2023-04-15T06:46:23.033Z,90099.34
2023-04-15T06:48:49.336Z,90098.31
2023-04-15T06:51:15.628Z,90094.28
2023-04-15T06:53:43.821Z,90093.59
2023-04-15T06:56:10.459Z,90097.13
2023-04-15T06:58:36.776Z,90100.94
2023-04-15T07:01:03.871Z,90096.69
2023-04-15T07:03:32.582Z,90093.25
2023-04-15T07:05:59.625Z,90095.06
2023-04-15T07:08:26.445Z,90089.50
2023-04-15T07:10:54.036Z,90086.78
2023-04-15T07:13:20.670Z,90087.22
2023-04-15T07:15:46.973Z,90087.03
2023-04-15T07:18:13.947Z,90074.47
2023-04-15T07:20:40.220Z,90082.38
2023-04-15T07:23:06.561Z,90085.41
2023-04-15T07:25:32.850Z,90082.09
2023-04-15T07:27:59.145Z,90091.38
2023-04-15T07:30:25.936Z,90083.06
2023-04-15T07:32:52.641Z,90081.69
2023-04-15T07:35:21.254Z,90072.94
2023-04-15T07:37:48.024Z,90080.56
2023-04-15T07:40:16.037Z,90085.41
2023-04-15T07:42:43.466Z,90078.91
2023-04-15T07:45:09.926Z,90079.03
2023-04-15T07:47:36.471Z,90077.78
2023-04-15T07:50:02.794Z,90082.22
2023-04-15T07:52:29.065Z,90083.06
2023-04-15T07:54:55.592Z,90089.16
2023-04-15T07:57:21.892Z,90080.13
2023-04-15T07:59:48.166Z,90079.47
2023-04-15T08:02:15.375Z,90083.75
2023-04-15T08:04:42.083Z,90076.97
2023-04-15T08:07:08.583Z,90081.13
2023-04-15T08:09:35.553Z,90076.13
2023-04-15T08:12:02.042Z,90080.84
2023-04-15T08:14:28.843Z,90082.91
2023-04-15T08:16:55.151Z,90087.09
2023-04-15T08:19:21.522Z,90090.84
2023-04-15T08:21:47.860Z,90092.91
2023-04-15T08:24:14.435Z,90090.09
2023-04-15T08:26:40.710Z,90100.13
2023-04-15T08:29:06.994Z,90094.94
2023-04-15T08:31:33.442Z,90096.72
2023-04-15T08:34:00.261Z,90109.19
2023-04-15T08:36:27.045Z,90109.66
2023-04-15T08:38:53.444Z,90108.75
2023-04-15T08:41:23.772Z,90112.16
2023-04-15T08:43:54.586Z,90118.09
2023-04-15T08:46:20.987Z,90124.94
2023-04-15T08:48:47.666Z,90127.31
2023-04-15T08:51:16.127Z,90131.03
2023-04-15T08:53:47.222Z,90132.59
2023-04-15T08:56:14.204Z,90135.38
2023-04-15T08:58:40.515Z,90143.03
2023-04-15T09:01:07.123Z,90143.91
2023-04-15T09:03:33.569Z,90141.78
2023-04-15T09:05:59.938Z,90146.91
2023-04-15T09:08:26.601Z,90144.09
2023-04-15T09:10:53.821Z,90149.75
2023-04-15T09:13:20.116Z,90149.63
2023-04-15T09:15:46.393Z,90159.78
2023-04-15T09:18:13.659Z,90157.72
2023-04-15T09:20:43.007Z,90166.53
2023-04-15T09:23:13.481Z,90165.22
2023-04-15T09:25:40.362Z,90167.63
2023-04-15T09:28:06.635Z,90168.59
2023-04-15T09:30:32.977Z,90170.06
2023-04-15T09:33:00.068Z,90174.66
2023-04-15T09:35:27.390Z,90177.13
2023-04-15T09:37:53.733Z,90182.47
2023-04-15T09:40:33.024Z,90176.28
2023-04-15T09:42:59.507Z,90180.06
2023-04-15T09:45:28.908Z,90177.13
2023-04-15T09:47:57.744Z,90187.13
2023-04-15T09:50:27.601Z,90186.56
2023-04-15T09:52:53.877Z,90187.50
2023-04-15T09:55:20.270Z,90193.91
2023-04-15T09:57:47.308Z,90186.53
2023-04-15T10:00:14.064Z,90187.50
2023-04-15T10:02:40.932Z,90190.13
2023-04-15T10:05:07.387Z,90185.69
2023-04-15T10:07:33.928Z,90189.47
2023-04-15T10:10:00.529Z,90182.28
2023-04-15T10:12:26.830Z,90186.84
2023-04-15T10:14:53.429Z,90189.88
2023-04-15T10:17:21.333Z,90192.22
2023-04-15T10:19:47.682Z,90186.78
2023-04-15T10:22:14.494Z,90188.56
2023-04-15T10:24:40.779Z,90193.78
2023-04-15T10:27:07.409Z,90199.19
2023-04-15T10:29:33.977Z,90195.50
2023-04-15T10:32:00.454Z,90195.75
2023-04-15T10:34:26.735Z,90199.88
2023-04-15T10:36:57.287Z,90203.16
2023-04-15T10:39:42.865Z,90189.94
2023-04-15T10:42:13.041Z,90196.28
2023-04-15T10:44:42.988Z,90195.53
2023-04-15T10:47:13.072Z,90209.91
2023-04-15T10:49:43.076Z,90209.88
2023-04-15T10:52:09.368Z,90205.19
2023-04-15T10:54:38.771Z,90212.28
2023-04-15T10:57:05.866Z,90210.59
2023-04-15T10:59:43.472Z,90210.72
2023-04-15T11:08:13.330Z,90215.06
2023-04-15T11:10:39.555Z,90216.16
2023-04-15T11:13:13.282Z,90220.31
2023-04-15T11:15:40.519Z,90218.81
2023-04-15T11:18:18.308Z,90230.91
2023-04-15T11:21:04.886Z,90224.31
2023-04-15T11:23:38.255Z,90223.06
2023-04-15T11:26:09.756Z,90220.78
2023-04-15T11:28:37.468Z,90221.19
2023-04-15T11:31:10.520Z,90217.03
2023-04-15T11:33:36.818Z,90227.75
2023-04-15T11:36:04.193Z,90228.78
2023-04-15T11:38:31.413Z,90234.97
2023-04-15T11:40:57.730Z,90230.94
2023-04-15T11:43:24.289Z,90238.31
2023-04-15T11:45:57.372Z,90238.31
2023-04-15T11:48:24.831Z,90244.06
2023-04-15T11:50:54.916Z,90240.47
2023-04-15T11:53:21.672Z,90242.69
2023-04-15T11:55:48.607Z,90244.66
2023-04-15T11:58:22.313Z,90235.06
2023-04-15T12:00:55.121Z,90254.03
2023-04-15T12:03:25.079Z,90256.56
2023-04-15T12:06:13.930Z,90250.41
2023-04-15T12:08:55.376Z,90257.38
2023-04-15T12:11:22.155Z,90263.09
2023-04-15T12:13:49.143Z,90266.53
2023-04-15T12:16:18.770Z,90270.41
2023-04-15T12:18:56.098Z,90271.59
2023-04-15T12:21:23.015Z,90264.47
2023-04-15T12:23:50.254Z,90278.53
2023-04-15T12:26:17.299Z,90280.56
2023-04-15T12:28:43.654Z,90284.59
2023-04-15T12:31:10.362Z,90288.47
2023-04-15T12:33:36.811Z,90297.81
2023-04-15T12:36:03.301Z,90292.56
2023-04-15T12:38:29.894Z,90314.84
2023-04-15T12:40:56.432Z,90300.06
2023-04-15T12:43:22.721Z,90314.19
2023-04-15T12:45:49.046Z,90314.78
2023-04-15T12:48:15.436Z,90333.16
2023-04-15T12:50:41.742Z,90336.91
2023-04-15T12:53:09.261Z,90324.09
2023-04-15T12:55:35.630Z,90336.50
2023-04-15T12:58:02.005Z,90333.91
2023-04-15T13:00:28.309Z,90337.47
2023-04-15T13:02:54.662Z,90339.28
2023-04-15T13:05:21.146Z,90349.59
2023-04-15T13:07:47.427Z,90345.03
2023-04-15T13:10:13.721Z,90346.47
2023-04-15T13:12:41.314Z,90340.81
2023-04-15T13:15:09.479Z,90347.72
2023-04-15T13:17:36.056Z,90355.38
2023-04-15T13:20:02.382Z,90349.38
2023-04-15T13:22:28.691Z,90357.25
2023-04-15T13:24:55.041Z,90360.59
2023-04-15T13:27:21.559Z,90354.25
2023-04-15T13:29:47.840Z,90358.47
2023-04-15T13:32:14.253Z,90355.25
2023-04-15T13:34:40.616Z,90353.75
2023-04-15T13:37:07.816Z,90362.78
2023-04-15T13:39:34.162Z,90364.47
2023-04-15T13:42:00.765Z,90364.84
2023-04-15T13:44:27.061Z,90359.00
2023-04-15T13:46:53.343Z,90365.22
2023-04-15T13:49:19.642Z,90368.94
2023-04-15T13:51:45.981Z,90367.84
2023-04-15T13:54:12.274Z,90370.44
2023-04-15T13:56:38.606Z,90382.38
2023-04-15T13:59:06.526Z,90385.47
2023-04-15T14:01:32.883Z,90391.31
2023-04-15T14:03:59.377Z,90391.56
2023-04-15T14:06:27.177Z,90394.06
2023-04-15T14:08:53.473Z,90385.75
2023-04-15T14:11:19.843Z,90389.59
2023-04-15T14:13:46.297Z,90391.94
2023-04-15T14:16:12.666Z,90392.25
2023-04-15T14:18:39.650Z,90407.06
2023-04-15T14:21:06.371Z,90394.53
2023-04-15T14:23:32.683Z,90388.88
2023-04-15T14:25:58.958Z,90395.38
2023-04-15T14:28:25.325Z,90398.88
2023-04-15T14:30:51.785Z,90404.09
2023-04-15T14:33:18.134Z,90405.78
2023-04-15T14:35:44.748Z,90412.97
2023-04-15T14:38:11.544Z,90405.59
2023-04-15T14:40:38.008Z,90404.09
2023-04-15T14:43:04.308Z,90413.16
2023-04-15T14:45:30.595Z,90426.09
2023-04-15T14:47:56.909Z,90428.00
2023-04-15T14:50:23.271Z,90439.31
2023-04-15T14:52:49.557Z,90432.50
2023-04-15T14:55:15.839Z,90441.44
2023-04-15T14:57:42.145Z,90441.19
2023-04-15T15:00:09.738Z,90454.75
2023-04-15T15:02:39.700Z,90456.16
2023-04-15T15:05:06.867Z,90451.75
2023-04-15T15:07:33.299Z,90456.31
2023-04-15T15:09:59.703Z,90453.41
2023-04-15T15:12:26.119Z,90461.44
2023-04-15T15:14:52.400Z,90468.81
2023-04-15T15:17:18.675Z,90477.81
2023-04-15T15:19:44.954Z,90482.09
2023-04-15T15:22:11.245Z,90474.19
2023-04-15T15:24:37.554Z,90485.00
2023-04-15T15:27:05.720Z,90482.13
2023-04-15T15:29:32.018Z,90481.19
2023-04-15T15:31:58.294Z,90493.44
2023-04-15T15:34:24.572Z,90485.47
2023-04-15T15:36:50.923Z,90491.06
2023-04-15T15:39:17.237Z,90486.63
2023-04-15T15:41:43.509Z,90493.59
2023-04-15T15:44:09.797Z,90485.66
2023-04-15T15:46:36.134Z,90492.69
2023-04-15T15:49:03.452Z,90501.47
2023-04-15T15:51:30.203Z,90491.75
2023-04-15T15:53:56.469Z,90503.69
2023-04-15T15:56:22.759Z,90513.22
2023-04-15T15:58:49.064Z,90512.44
2023-04-15T16:01:15.697Z,90515.34
2023-04-15T16:03:42.163Z,90528.59
2023-04-15T16:06:08.708Z,90530.44
2023-04-15T16:08:35.091Z,90540.63
2023-04-15T16:11:01.421Z,90537.44
2023-04-15T16:13:27.772Z,90529.34
2023-04-15T16:15:54.034Z,90531.41
2023-04-15T16:18:20.679Z,90529.59
2023-04-15T16:20:46.962Z,90538.97
2023-04-15T16:23:14.028Z,90545.34
2023-04-15T16:25:41.160Z,90543.66
2023-04-15T16:28:18.535Z,90542.94
2023-04-15T16:30:51.718Z,90549.03
2023-04-15T16:33:18.050Z,90556.81
2023-04-15T16:35:44.387Z,90563.25
2023-04-15T16:38:10.672Z,90559.63
2023-04-15T16:40:37.172Z,90563.97
2023-04-15T16:43:03.567Z,90561.22
2023-04-15T16:45:29.998Z,90573.47
2023-04-15T16:47:56.885Z,90568.44
2023-04-15T16:50:23.860Z,90568.16
2023-04-15T16:52:50.150Z,90571.66
2023-04-15T16:55:16.451Z,90572.63
2023-04-15T16:58:02.619Z,90580.72
2023-04-15T17:00:29.049Z,90578.19
2023-04-15T17:02:55.605Z,90595.06
2023-04-15T17:05:22.071Z,90587.22
2023-04-15T17:07:48.367Z,90597.69
2023-04-15T17:10:14.719Z,90603.97
2023-04-15T17:12:40.988Z,90607.44
2023-04-15T17:15:07.902Z,90616.16
2023-04-15T17:17:34.201Z,90617.22
2023-04-15T17:20:00.557Z,90614.63
2023-04-15T17:22:27.354Z,90619.78
2023-04-15T17:24:53.656Z,90622.81
2023-04-15T17:27:20.739Z,90634.19
2023-04-15T17:29:47.087Z,90634.94
2023-04-15T17:32:13.446Z,90646.78
2023-04-15T17:34:49.898Z,90655.56
2023-04-15T17:37:17.562Z,90663.34
2023-04-15T17:39:44.146Z,90668.38
2023-04-15T17:42:11.008Z,90672.53
2023-04-15T17:44:37.294Z,90674.97
2023-04-15T17:47:03.575Z,90667.25
2023-04-15T17:49:30.732Z,90668.75
2023-04-15T17:51:57.193Z,90678.66
2023-04-15T17:54:23.481Z,90678.03
2023-04-15T17:56:49.783Z,90691.72
2023-04-15T17:59:16.332Z,90692.16
2023-04-15T18:01:42.698Z,90704.81
2023-04-15T18:04:09.335Z,90711.59
2023-04-15T18:06:35.972Z,90716.41
2023-04-15T18:09:02.584Z,90716.81
2023-04-15T18:11:28.958Z,90727.66
2023-04-15T18:13:55.269Z,90730.00
2023-04-15T18:16:21.724Z,90734.47
2023-04-15T18:18:48.065Z,90735.28
2023-04-15T18:21:14.359Z,90740.13
2023-04-15T18:23:40.715Z,90736.69
2023-04-15T18:26:06.996Z,90745.34
2023-04-15T18:28:33.328Z,90751.94
2023-04-15T18:30:59.675Z,90753.19
2023-04-15T18:33:25.966Z,90761.91
2023-04-15T18:35:52.279Z,90769.69
2023-04-15T18:38:18.595Z,90781.81
2023-04-15T18:40:44.883Z,90776.50
2023-04-15T18:43:11.182Z,90783.31
2023-04-15T18:45:37.507Z,90789.84
2023-04-15T18:48:04.288Z,90799.72
2023-04-15T18:50:30.803Z,90808.28
2023-04-15T18:52:57.089Z,90814.00
2023-04-15T18:55:23.396Z,90804.84
2023-04-15T18:57:49.691Z,90813.25
2023-04-15T19:00:17.019Z,90812.44
2023-04-15T19:02:44.083Z,90818.00
2023-04-15T19:05:10.673Z,90827.47
2023-04-15T19:07:36.980Z,90830.81
2023-04-15T19:10:04.162Z,90839.88
2023-04-15T19:12:30.495Z,90832.72
2023-04-15T19:14:56.812Z,90828.31
2023-04-15T19:17:23.186Z,90825.84
2023-04-15T19:19:49.497Z,90823.81
2023-04-15T19:22:15.840Z,90835.78
2023-04-15T19:24:42.262Z,90840.28
2023-04-15T19:27:08.553Z,90844.94
2023-04-15T19:29:34.901Z,90842.28
2023-04-15T19:32:01.263Z,90850.78
2023-04-15T19:34:27.604Z,90847.81
2023-04-15T19:36:53.902Z,90864.75
2023-04-15T19:39:20.318Z,90863.03
2023-04-15T19:41:47.122Z,90869.25
2023-04-15T19:44:13.587Z,90877.53
2023-04-15T19:46:40.250Z,90896.50
2023-04-15T19:49:06.768Z,90902.06
2023-04-15T19:51:33.280Z,90910.19
2023-04-15T19:53:59.581Z,90923.34
2023-04-15T19:56:26.045Z,90925.53
2023-04-15T19:58:55.206Z,90935.84
2023-04-15T20:01:21.695Z,90947.06
2023-04-15T20:03:48.239Z,90942.94
2023-04-15T20:06:14.788Z,90948.50
2023-04-15T20:08:41.152Z,90934.06
2023-04-15T20:11:08.244Z,90920.00
2023-04-15T20:13:34.515Z,90920.00
2023-04-15T20:16:00.892Z,90933.84
2023-04-15T20:18:27.208Z,90936.28
2023-04-15T20:20:53.522Z,90935.00
2023-04-15T20:23:19.820Z,90937.84
2023-04-15T20:25:46.182Z,90951.03
2023-04-15T20:28:12.524Z,90954.75
2023-04-15T20:30:39.501Z,90944.03
2023-04-15T20:33:07.594Z,90941.72
2023-04-15T20:35:34.132Z,90945.38
2023-04-15T20:38:00.714Z,90951.84
2023-04-15T20:40:27.056Z,90955.16
2023-04-15T20:42:53.395Z,90947.06
2023-04-15T20:45:19.676Z,90952.88
2023-04-15T20:47:46.008Z,90944.00
2023-04-15T20:50:12.363Z,90934.31
2023-04-15T20:52:38.938Z,90945.06
2023-04-15T20:55:06.913Z,90954.69
2023-04-15T20:57:33.188Z,90954.50
2023-04-15T20:59:59.495Z,90955.44
2023-04-15T21:02:25.992Z,90967.84
2023-04-15T21:04:52.395Z,90954.38
2023-04-15T21:07:18.658Z,90956.91
2023-04-15T21:09:44.996Z,90957.41
2023-04-15T21:12:11.304Z,90958.63
2023-04-15T21:14:37.683Z,90966.19
2023-04-15T21:17:09.162Z,90958.84
2023-04-15T21:19:36.743Z,90962.97
2023-04-15T21:22:03.048Z,90966.38
2023-04-15T21:24:29.408Z,90962.47
2023-04-15T21:26:57.170Z,90969.00
2023-04-15T21:29:23.632Z,90976.28
2023-04-15T21:31:50.047Z,90981.78
2023-04-15T21:34:16.408Z,90984.03
2023-04-15T21:36:42.801Z,90983.72
2023-04-15T21:39:09.097Z,90981.91
2023-04-15T21:41:36.720Z,90989.47
2023-04-15T21:44:03.218Z,90990.00
2023-04-15T21:46:32.743Z,90997.94
2023-04-15T21:48:59.770Z,90988.19
2023-04-15T21:51:26.585Z,90991.19
2023-04-15T21:53:52.865Z,90986.63
2023-04-15T21:56:21.453Z,90980.34
2023-04-15T21:58:47.760Z,90979.63
2023-04-15T22:01:14.226Z,90982.41
2023-04-15T22:03:40.891Z,90978.91
2023-04-15T22:06:07.368Z,90988.56
2023-04-15T22:08:44.637Z,90986.41
2023-04-15T22:11:22.867Z,90988.25
2023-04-15T22:13:49.164Z,90985.19
2023-04-15T22:16:15.549Z,90986.22
2023-04-15T22:18:41.858Z,90982.53
2023-04-15T22:21:08.439Z,90996.53
2023-04-15T22:23:34.751Z,90994.94
2023-04-15T22:26:01.234Z,90998.06
2023-04-15T22:28:27.511Z,90997.94
2023-04-15T22:30:54.538Z,91010.91
2023-04-15T22:33:20.960Z,91011.78
2023-04-15T22:35:47.268Z,91006.09
2023-04-15T22:38:13.565Z,91013.69
2023-04-15T22:40:39.862Z,91012.97
2023-04-15T22:43:06.183Z,91021.50
2023-04-15T22:45:32.478Z,91021.63
2023-04-15T22:47:58.813Z,91019.31
2023-04-15T22:50:25.142Z,91024.97
2023-04-15T22:52:51.564Z,91021.44
2023-04-15T22:55:18.053Z,91025.25
2023-04-15T22:57:44.426Z,91025.06
2023-04-15T23:00:11.062Z,91032.03
2023-04-15T23:02:37.560Z,91032.63
2023-04-15T23:05:12.442Z,91040.16
2023-04-15T23:07:39.750Z,91046.94
2023-04-15T23:10:06.878Z,91050.50
2023-04-15T23:12:33.157Z,91059.13
2023-04-15T23:14:59.428Z,91048.63
2023-04-15T23:17:26.616Z,91059.53
2023-04-15T23:19:53.062Z,91060.50
2023-04-15T23:22:19.360Z,91059.63
2023-04-15T23:24:46.030Z,91062.41
2023-04-15T23:27:12.300Z,91067.66
2023-04-15T23:29:38.852Z,91065.50
2023-04-15T23:32:05.314Z,91064.44
2023-04-15T23:34:31.689Z,91064.63
2023-04-15T23:36:57.999Z,91070.91
2023-04-15T23:39:24.339Z,91063.31
2023-04-15T23:41:50.639Z,91075.81
2023-04-15T23:44:16.922Z,91075.25
2023-04-15T23:46:43.247Z,91065.63
2023-04-15T23:49:09.789Z,91076.16
2023-04-15T23:51:36.288Z,91076.72
2023-04-15T23:54:02.559Z,91078.97
2023-04-15T23:56:28.861Z,91075.72
2023-04-15T23:58:55.324Z,91077.97
